sensor_id;sensor_type;location;lat;lon;timestamp;pressure;altitude;pressure_sealevel;temperature;humidity
71151;BME280;59071;42.138;24.768;2023-09-08T00:02:07;100073.88;;;23.96;56.95
71151;BME280;59071;42.138;24.768;2023-09-08T00:04:32;100067.19;;;23.83;57.26
71151;BME280;59071;42.138;24.768;2023-09-08T00:06:58;100069.69;;;23.69;57.41
71151;BME280;59071;42.138;24.768;2023-09-08T00:09:24;100066.94;;;23.79;57.16
71151;BME280;59071;42.138;24.768;2023-09-08T00:11:49;100072.22;;;24.00;58.27
71151;BME280;59071;42.138;24.768;2023-09-08T00:14:15;100072.06;;;24.15;58.82
71151;BME280;59071;42.138;24.768;2023-09-08T00:16:40;100076.72;;;23.80;60.44
71151;BME280;59071;42.138;24.768;2023-09-08T00:19:08;100078.19;;;23.97;60.02
71151;BME280;59071;42.138;24.768;2023-09-08T00:21:33;100074.00;;;23.80;61.09
71151;BME280;59071;42.138;24.768;2023-09-08T00:23:59;100075.44;;;23.62;61.81
71151;BME280;59071;42.138;24.768;2023-09-08T00:26:26;100077.59;;;23.66;62.06
71151;BME280;59071;42.138;24.768;2023-09-08T00:28:51;100074.13;;;23.60;61.86
71151;BME280;59071;42.138;24.768;2023-09-08T00:31:16;100076.94;;;23.39;62.35
71151;BME280;59071;42.138;24.768;2023-09-08T00:33:42;100060.09;;;23.48;61.99
71151;BME280;59071;42.138;24.768;2023-09-08T00:36:09;100071.91;;;23.62;62.04
71151;BME280;59071;42.138;24.768;2023-09-08T00:38:35;100066.72;;;23.26;63.67
71151;BME280;59071;42.138;24.768;2023-09-08T00:41:00;100076.41;;;23.42;62.58
71151;BME280;59071;42.138;24.768;2023-09-08T00:43:26;100081.66;;;23.29;63.48
71151;BME280;59071;42.138;24.768;2023-09-08T00:45:54;100081.56;;;23.44;62.85
71151;BME280;59071;42.138;24.768;2023-09-08T00:48:20;100074.03;;;23.31;63.67
71151;BME280;59071;42.138;24.768;2023-09-08T00:50:45;100071.16;;;23.07;64.90
71151;BME280;59071;42.138;24.768;2023-09-08T00:53:11;100082.53;;;23.14;64.40
71151;BME280;59071;42.138;24.768;2023-09-08T00:55:39;100083.38;;;22.94;65.52
71151;BME280;59071;42.138;24.768;2023-09-08T00:58:04;100085.50;;;23.12;64.63
71151;BME280;59071;42.138;24.768;2023-09-08T01:00:30;100074.13;;;23.15;65.62
71151;BME280;59071;42.138;24.768;2023-09-08T01:02:57;100071.16;;;23.07;65.71
71151;BME280;59071;42.138;24.768;2023-09-08T01:05:23;100075.22;;;23.09;65.63
71151;BME280;59071;42.138;24.768;2023-09-08T01:07:49;100065.13;;;23.20;65.04
71151;BME280;59071;42.138;24.768;2023-09-08T01:10:16;100064.06;;;23.11;65.61
71151;BME280;59071;42.138;24.768;2023-09-08T01:12:41;100060.50;;;23.20;65.07
71151;BME280;59071;42.138;24.768;2023-09-08T01:15:07;100055.66;;;23.12;65.87
71151;BME280;59071;42.138;24.768;2023-09-08T01:17:33;100060.34;;;22.96;66.10
71151;BME280;59071;42.138;24.768;2023-09-08T01:20:26;100057.91;;;22.84;66.62
71151;BME280;59071;42.138;24.768;2023-09-08T01:25:23;100057.63;;;22.86;67.12
71151;BME280;59071;42.138;24.768;2023-09-08T01:27:55;100050.03;;;22.93;67.46
71151;BME280;59071;42.138;24.768;2023-09-08T01:30:24;100051.91;;;23.03;67.19
71151;BME280;59071;42.138;24.768;2023-09-08T01:32:50;100051.94;;;22.88;67.65
71151;BME280;59071;42.138;24.768;2023-09-08T01:35:17;100051.16;;;22.82;67.82
71151;BME280;59071;42.138;24.768;2023-09-08T01:37:47;100046.28;;;22.79;67.86
71151;BME280;59071;42.138;24.768;2023-09-08T01:40:13;100049.88;;;22.64;68.64
71151;BME280;59071;42.138;24.768;2023-09-08T01:42:39;100047.66;;;22.71;68.08
71151;BME280;59071;42.138;24.768;2023-09-08T01:45:05;100056.09;;;22.59;68.73
71151;BME280;59071;42.138;24.768;2023-09-08T01:47:32;100043.38;;;22.50;68.97
71151;BME280;59071;42.138;24.768;2023-09-08T01:49:57;100055.56;;;22.62;68.32
71151;BME280;59071;42.138;24.768;2023-09-08T01:52:24;100056.38;;;22.58;68.38
71151;BME280;59071;42.138;24.768;2023-09-08T01:54:49;100056.38;;;22.63;68.00
71151;BME280;59071;42.138;24.768;2023-09-08T01:57:15;100057.72;;;22.65;68.53
71151;BME280;59071;42.138;24.768;2023-09-08T01:59:40;100052.28;;;22.65;68.34
71151;BME280;59071;42.138;24.768;2023-09-08T02:02:06;100061.56;;;22.54;68.85
71151;BME280;59071;42.138;24.768;2023-09-08T02:04:32;100060.75;;;22.43;69.17
71151;BME280;59071;42.138;24.768;2023-09-08T02:06:57;100054.78;;;22.52;69.01
71151;BME280;59071;42.138;24.768;2023-09-08T02:09:31;100059.94;;;22.12;70.91
71151;BME280;59071;42.138;24.768;2023-09-08T02:11:56;100053.44;;;22.39;69.42
71151;BME280;59071;42.138;24.768;2023-09-08T02:14:22;100060.22;;;22.47;69.29
71151;BME280;59071;42.138;24.768;2023-09-08T02:16:47;100057.78;;;22.45;69.49
71151;BME280;59071;42.138;24.768;2023-09-08T02:19:12;100059.94;;;22.48;69.19
71151;BME280;59071;42.138;24.768;2023-09-08T02:21:38;100056.19;;;22.29;69.93
71151;BME280;59071;42.138;24.768;2023-09-08T02:24:03;100051.28;;;22.20;70.67
71151;BME280;59071;42.138;24.768;2023-09-08T02:26:29;100055.59;;;22.21;70.35
71151;BME280;59071;42.138;24.768;2023-09-08T02:28:57;100051.31;;;22.05;71.11
71151;BME280;59071;42.138;24.768;2023-09-08T02:31:22;100048.84;;;22.29;69.57
71151;BME280;59071;42.138;24.768;2023-09-08T02:33:48;100047.50;;;22.27;69.69
71151;BME280;59071;42.138;24.768;2023-09-08T02:36:13;100040.19;;;22.22;70.27
71151;BME280;59071;42.138;24.768;2023-09-08T02:38:38;100047.25;;;22.33;69.75
71151;BME280;59071;42.138;24.768;2023-09-08T02:41:04;100040.97;;;22.17;70.79
71151;BME280;59071;42.138;24.768;2023-09-08T02:43:29;100038.56;;;22.00;71.70
71151;BME280;59071;42.138;24.768;2023-09-08T02:45:55;100037.47;;;21.96;71.74
71151;BME280;59071;42.138;24.768;2023-09-08T02:48:20;100033.97;;;21.91;72.49
71151;BME280;59071;42.138;24.768;2023-09-08T02:50:45;100028.00;;;22.04;72.06
71151;BME280;59071;42.138;24.768;2023-09-08T02:53:12;100036.41;;;21.87;72.64
71151;BME280;59071;42.138;24.768;2023-09-08T02:55:37;100036.41;;;21.87;72.84
71151;BME280;59071;42.138;24.768;2023-09-08T02:58:03;100031.25;;;21.96;72.71
71151;BME280;59071;42.138;24.768;2023-09-08T03:00:28;100037.19;;;22.13;72.11
71151;BME280;59071;42.138;24.768;2023-09-08T03:02:54;100022.97;;;22.78;68.66
71151;BME280;59071;42.138;24.768;2023-09-08T03:05:20;100032.09;;;23.08;67.71
71151;BME280;59071;42.138;24.768;2023-09-08T03:07:47;100039.88;;;23.19;66.90
71151;BME280;59071;42.138;24.768;2023-09-08T03:10:13;100046.09;;;23.25;66.46
71151;BME280;59071;42.138;24.768;2023-09-08T03:12:39;100034.09;;;23.31;66.54
71151;BME280;59071;42.138;24.768;2023-09-08T03:15:04;100041.66;;;23.39;66.16
71151;BME280;59071;42.138;24.768;2023-09-08T03:17:30;100044.63;;;23.43;65.85
71151;BME280;59071;42.138;24.768;2023-09-08T03:19:55;100035.91;;;23.46;65.92
71151;BME280;59071;42.138;24.768;2023-09-08T03:22:21;100046.50;;;23.48;65.69
71151;BME280;59071;42.138;24.768;2023-09-08T03:24:46;100045.13;;;23.50;65.58
71151;BME280;59071;42.138;24.768;2023-09-08T03:27:12;100041.28;;;23.51;65.59
71151;BME280;59071;42.138;24.768;2023-09-08T03:29:37;100046.16;;;23.54;65.62
71151;BME280;59071;42.138;24.768;2023-09-08T03:32:03;100047.28;;;23.53;65.47
71151;BME280;59071;42.138;24.768;2023-09-08T03:34:28;100045.41;;;23.49;65.65
71151;BME280;59071;42.138;24.768;2023-09-08T03:36:54;100053.66;;;23.33;66.35
71151;BME280;59071;42.138;24.768;2023-09-08T03:39:19;100054.84;;;23.01;67.14
71151;BME280;59071;42.138;24.768;2023-09-08T03:41:45;100047.03;;;23.00;67.34
71151;BME280;59071;42.138;24.768;2023-09-08T03:44:10;100052.19;;;22.96;66.05
71151;BME280;59071;42.138;24.768;2023-09-08T03:46:36;100053.22;;;23.11;66.66
71151;BME280;59071;42.138;24.768;2023-09-08T03:49:01;100053.19;;;23.21;66.52
71151;BME280;59071;42.138;24.768;2023-09-08T03:51:27;100044.50;;;23.19;66.56
71151;BME280;59071;42.138;24.768;2023-09-08T03:53:53;100050.41;;;23.26;66.37
71151;BME280;59071;42.138;24.768;2023-09-08T03:56:18;100048.31;;;23.13;66.43
71151;BME280;59071;42.138;24.768;2023-09-08T03:58:45;100047.19;;;23.24;66.30
71151;BME280;59071;42.138;24.768;2023-09-08T04:01:11;100054.50;;;23.29;66.16
71151;BME280;59071;42.138;24.768;2023-09-08T04:03:36;100058.00;;;23.34;66.07
71151;BME280;59071;42.138;24.768;2023-09-08T04:06:02;100051.41;;;23.46;65.91
71151;BME280;59071;42.138;24.768;2023-09-08T04:08:27;100052.16;;;23.51;65.75
71151;BME280;59071;42.138;24.768;2023-09-08T04:10:52;100054.06;;;23.51;65.39
71151;BME280;59071;42.138;24.768;2023-09-08T04:13:18;100070.81;;;23.23;66.14
71151;BME280;59071;42.138;24.768;2023-09-08T04:15:43;100074.81;;;22.56;68.61
71151;BME280;59071;42.138;24.768;2023-09-08T04:18:08;100063.53;;;23.09;66.69
71151;BME280;59071;42.138;24.768;2023-09-08T04:20:34;100064.56;;;23.23;66.41
71151;BME280;59071;42.138;24.768;2023-09-08T04:22:59;100074.31;;;23.29;66.41
71151;BME280;59071;42.138;24.768;2023-09-08T04:25:25;100073.97;;;23.36;66.44
71151;BME280;59071;42.138;24.768;2023-09-08T04:27:50;100062.22;;;23.51;65.73
71151;BME280;59071;42.138;24.768;2023-09-08T04:30:16;100059.97;;;23.63;65.38
71151;BME280;59071;42.138;24.768;2023-09-08T04:32:42;100060.94;;;23.83;64.26
71151;BME280;59071;42.138;24.768;2023-09-08T04:35:09;100076.34;;;23.92;63.91
71151;BME280;59071;42.138;24.768;2023-09-08T04:37:34;100076.03;;;23.99;63.28
71151;BME280;59071;42.138;24.768;2023-09-08T04:40:00;100083.53;;;24.12;62.95
71151;BME280;59071;42.138;24.768;2023-09-08T04:42:25;100080.94;;;24.26;62.78
71151;BME280;59071;42.138;24.768;2023-09-08T04:44:50;100074.78;;;24.45;62.26
71151;BME280;59071;42.138;24.768;2023-09-08T04:47:16;100085.22;;;24.62;61.54
71151;BME280;59071;42.138;24.768;2023-09-08T04:49:41;100091.84;;;24.55;61.37
71151;BME280;59071;42.138;24.768;2023-09-08T04:52:07;100085.97;;;24.67;61.50
71151;BME280;59071;42.138;24.768;2023-09-08T04:54:32;100090.97;;;24.84;60.73
71151;BME280;59071;42.138;24.768;2023-09-08T04:56:58;100080.91;;;24.85;60.58
71151;BME280;59071;42.138;24.768;2023-09-08T04:59:24;100086.13;;;24.81;59.65
71151;BME280;59071;42.138;24.768;2023-09-08T05:01:50;100092.84;;;24.89;59.01
71151;BME280;59071;42.138;24.768;2023-09-08T05:04:17;100087.00;;;24.52;59.90
71151;BME280;59071;42.138;24.768;2023-09-08T05:06:43;100090.22;;;24.78;59.34
71151;BME280;59071;42.138;24.768;2023-09-08T05:09:08;100085.88;;;24.24;60.88
71151;BME280;59071;42.138;24.768;2023-09-08T05:11:34;100095.78;;;24.10;61.71
71151;BME280;59071;42.138;24.768;2023-09-08T05:13:59;100093.50;;;24.22;60.89
71151;BME280;59071;42.138;24.768;2023-09-08T05:16:25;100087.56;;;24.44;60.39
71151;BME280;59071;42.138;24.768;2023-09-08T05:19:05;100097.50;;;24.59;60.29
71151;BME280;59071;42.138;24.768;2023-09-08T05:21:31;100091.63;;;24.76;59.92
71151;BME280;59071;42.138;24.768;2023-09-08T05:23:57;100095.59;;;24.84;59.49
71151;BME280;59071;42.138;24.768;2023-09-08T05:26:23;100096.81;;;25.40;57.56
71151;BME280;59071;42.138;24.768;2023-09-08T05:28:48;100096.31;;;25.38;57.55
71151;BME280;59071;42.138;24.768;2023-09-08T05:31:13;100095.91;;;25.49;57.49
71151;BME280;59071;42.138;24.768;2023-09-08T05:33:39;100097.41;;;25.74;56.37
71151;BME280;59071;42.138;24.768;2023-09-08T05:36:04;100096.56;;;26.12;55.17
71151;BME280;59071;42.138;24.768;2023-09-08T05:38:30;100096.09;;;26.24;54.82
71151;BME280;59071;42.138;24.768;2023-09-08T05:40:56;100102.94;;;26.54;53.94
71151;BME280;59071;42.138;24.768;2023-09-08T05:43:24;100103.66;;;26.60;53.75
71151;BME280;59071;42.138;24.768;2023-09-08T05:45:50;100115.19;;;26.84;51.98
71151;BME280;59071;42.138;24.768;2023-09-08T05:48:16;100113.88;;;27.09;50.82
71151;BME280;59071;42.138;24.768;2023-09-08T05:50:41;100116.31;;;26.97;50.41
71151;BME280;59071;42.138;24.768;2023-09-08T05:53:07;100115.09;;;26.89;50.51
71151;BME280;59071;42.138;24.768;2023-09-08T05:55:32;100126.09;;;27.12;50.06
71151;BME280;59071;42.138;24.768;2023-09-08T05:57:57;100122.53;;;27.39;49.39
71151;BME280;59071;42.138;24.768;2023-09-08T06:00:23;100120.91;;;27.52;48.96
71151;BME280;59071;42.138;24.768;2023-09-08T06:02:48;100119.88;;;27.62;49.24
71151;BME280;59071;42.138;24.768;2023-09-08T06:05:14;100124.81;;;27.96;48.50
71151;BME280;59071;42.138;24.768;2023-09-08T06:07:39;100112.50;;;28.30;47.77
71151;BME280;59071;42.138;24.768;2023-09-08T06:10:05;100120.56;;;28.58;46.61
71151;BME280;59071;42.138;24.768;2023-09-08T06:12:30;100116.75;;;28.76;46.10
71151;BME280;59071;42.138;24.768;2023-09-08T06:14:56;100120.88;;;28.96;45.58
71151;BME280;59071;42.138;24.768;2023-09-08T06:17:21;100123.97;;;29.12;45.13
71151;BME280;59071;42.138;24.768;2023-09-08T06:19:47;100125.47;;;29.27;44.93
71151;BME280;59071;42.138;24.768;2023-09-08T06:22:12;100127.59;;;29.39;44.64
71151;BME280;59071;42.138;24.768;2023-09-08T06:24:37;100131.13;;;29.39;44.07
71151;BME280;59071;42.138;24.768;2023-09-08T06:27:03;100137.59;;;29.70;43.67
71151;BME280;59071;42.138;24.768;2023-09-08T06:29:29;100136.19;;;29.90;43.50
71151;BME280;59071;42.138;24.768;2023-09-08T06:31:54;100142.13;;;30.00;42.94
71151;BME280;59071;42.138;24.768;2023-09-08T06:34:19;100126.47;;;30.10;41.64
71151;BME280;59071;42.138;24.768;2023-09-08T06:36:47;100143.19;;;30.52;41.45
71151;BME280;59071;42.138;24.768;2023-09-08T06:39:13;100144.28;;;30.68;41.01
71151;BME280;59071;42.138;24.768;2023-09-08T06:41:38;100141.91;;;30.88;40.50
71151;BME280;59071;42.138;24.768;2023-09-08T06:44:04;100140.06;;;31.09;39.99
71151;BME280;59071;42.138;24.768;2023-09-08T06:46:29;100145.56;;;31.81;38.53
71151;BME280;59071;42.138;24.768;2023-09-08T06:48:55;100146.59;;;31.55;38.47
71151;BME280;59071;42.138;24.768;2023-09-08T06:51:20;100149.56;;;31.21;39.59
71151;BME280;59071;42.138;24.768;2023-09-08T06:53:54;100149.56;;;31.21;39.47
71151;BME280;59071;42.138;24.768;2023-09-08T06:56:20;100150.22;;;31.47;38.90
71151;BME280;59071;42.138;24.768;2023-09-08T06:58:46;100149.19;;;31.52;38.96
71151;BME280;59071;42.138;24.768;2023-09-08T07:01:11;100158.47;;;31.68;38.88
71151;BME280;59071;42.138;24.768;2023-09-08T07:03:36;100153.56;;;31.53;38.94
71151;BME280;59071;42.138;24.768;2023-09-08T07:06:02;100158.00;;;31.87;38.29
71151;BME280;59071;42.138;24.768;2023-09-08T07:08:28;100163.59;;;31.91;38.20
71151;BME280;59071;42.138;24.768;2023-09-08T07:10:54;100159.13;;;31.86;38.73
71151;BME280;59071;42.138;24.768;2023-09-08T07:13:19;100164.75;;;32.11;37.67
71151;BME280;59071;42.138;24.768;2023-09-08T07:15:45;100149.88;;;33.07;36.51
71151;BME280;59071;42.138;24.768;2023-09-08T07:18:10;100145.09;;;33.16;36.39
71151;BME280;59071;42.138;24.768;2023-09-08T07:20:35;100145.53;;;33.06;35.83
71151;BME280;59071;42.138;24.768;2023-09-08T07:23:01;100139.56;;;32.91;34.85
71151;BME280;59071;42.138;24.768;2023-09-08T07:25:26;100152.84;;;32.65;33.38
71151;BME280;59071;42.138;24.768;2023-09-08T07:27:52;100148.56;;;32.55;34.26
71151;BME280;59071;42.138;24.768;2023-09-08T07:30:19;100149.56;;;32.38;34.55
71151;BME280;59071;42.138;24.768;2023-09-08T07:32:45;100145.03;;;32.54;34.24
71151;BME280;59071;42.138;24.768;2023-09-08T07:35:10;100142.59;;;32.53;34.03
71151;BME280;59071;42.138;24.768;2023-09-08T07:37:42;100146.56;;;32.31;34.07
71151;BME280;59071;42.138;24.768;2023-09-08T07:40:10;100146.09;;;32.29;34.34
71151;BME280;59071;42.138;24.768;2023-09-08T07:42:36;100130.25;;;32.84;33.19
71151;BME280;59071;42.138;24.768;2023-09-08T07:45:02;100134.38;;;32.90;32.45
71151;BME280;59071;42.138;24.768;2023-09-08T07:47:27;100126.81;;;32.62;33.02
71151;BME280;59071;42.138;24.768;2023-09-08T07:50:31;100127.63;;;32.75;32.16
71151;BME280;59071;42.138;24.768;2023-09-08T07:52:56;100127.81;;;32.12;32.83
71151;BME280;59071;42.138;24.768;2023-09-08T07:55:23;100131.66;;;32.32;32.38
71151;BME280;59071;42.138;24.768;2023-09-08T07:57:50;100122.88;;;31.42;32.38
71151;BME280;59071;42.138;24.768;2023-09-08T08:00:16;100131.47;;;31.41;33.03
71151;BME280;59071;42.138;24.768;2023-09-08T08:02:45;100115.63;;;32.01;31.87
71151;BME280;59071;42.138;24.768;2023-09-08T08:05:10;100123.78;;;31.55;31.85
71151;BME280;59071;42.138;24.768;2023-09-08T08:07:36;100122.88;;;31.42;32.92
71151;BME280;59071;42.138;24.768;2023-09-08T08:10:01;100122.75;;;30.79;34.04
71151;BME280;59071;42.138;24.768;2023-09-08T08:12:27;100127.47;;;30.05;34.77
71151;BME280;59071;42.138;24.768;2023-09-08T08:14:52;100117.41;;;30.27;35.42
71151;BME280;59071;42.138;24.768;2023-09-08T08:17:17;100126.94;;;30.38;34.87
71151;BME280;59071;42.138;24.768;2023-09-08T08:19:45;100110.31;;;30.26;35.51
71151;BME280;59071;42.138;24.768;2023-09-08T08:22:10;100113.22;;;30.76;34.07
71151;BME280;59071;42.138;24.768;2023-09-08T08:24:36;100107.06;;;30.79;33.70
71151;BME280;59071;42.138;24.768;2023-09-08T08:27:01;100112.84;;;30.87;32.81
71151;BME280;59071;42.138;24.768;2023-09-08T08:29:28;100115.09;;;30.46;33.24
71151;BME280;59071;42.138;24.768;2023-09-08T08:31:54;100111.28;;;31.07;32.57
71151;BME280;59071;42.138;24.768;2023-09-08T08:34:19;100105.88;;;30.98;33.35
71151;BME280;59071;42.138;24.768;2023-09-08T08:36:45;100109.16;;;31.12;32.89
71151;BME280;59071;42.138;24.768;2023-09-08T08:39:10;100109.59;;;31.23;32.13
71151;BME280;59071;42.138;24.768;2023-09-08T08:41:35;100102.69;;;30.78;31.96
71151;BME280;59071;42.138;24.768;2023-09-08T08:44:05;100107.00;;;30.50;32.71
71151;BME280;59071;42.138;24.768;2023-09-08T08:46:31;100099.75;;;30.92;32.74
71151;BME280;59071;42.138;24.768;2023-09-08T08:49:00;100090.69;;;31.22;33.06
71151;BME280;59071;42.138;24.768;2023-09-08T08:51:28;100101.91;;;31.59;32.28
71151;BME280;59071;42.138;24.768;2023-09-08T08:53:54;100096.44;;;31.29;31.06
71151;BME280;59071;42.138;24.768;2023-09-08T08:56:20;100106.91;;;30.37;32.91
71151;BME280;59071;42.138;24.768;2023-09-08T08:58:45;100091.97;;;29.74;33.69
71151;BME280;59071;42.138;24.768;2023-09-08T09:01:11;100110.50;;;29.59;33.14
71151;BME280;59071;42.138;24.768;2023-09-08T09:03:40;100098.59;;;29.73;33.47
71151;BME280;59071;42.138;24.768;2023-09-08T09:06:06;100112.22;;;30.25;32.46
71151;BME280;59071;42.138;24.768;2023-09-08T09:08:32;100094.22;;;30.07;32.46
71151;BME280;59071;42.138;24.768;2023-09-08T09:10:58;100083.34;;;30.75;32.09
71151;BME280;59071;42.138;24.768;2023-09-08T09:13:24;100097.88;;;31.05;30.51
71151;BME280;59071;42.138;24.768;2023-09-08T09:15:50;100082.94;;;30.94;30.43
71151;BME280;59071;42.138;24.768;2023-09-08T09:18:15;100087.91;;;31.01;31.15
71151;BME280;59071;42.138;24.768;2023-09-08T09:20:41;100084.00;;;30.72;31.64
71151;BME280;59071;42.138;24.768;2023-09-08T09:23:06;100083.19;;;30.33;31.93
71151;BME280;59071;42.138;24.768;2023-09-08T09:25:32;100086.50;;;30.56;31.92
71151;BME280;59071;42.138;24.768;2023-09-08T09:28:02;100091.75;;;30.70;31.42
71151;BME280;59071;42.138;24.768;2023-09-08T09:30:46;100085.19;;;31.43;29.71
71151;BME280;59071;42.138;24.768;2023-09-08T09:33:12;100079.06;;;30.95;31.02
71151;BME280;59071;42.138;24.768;2023-09-08T09:38:08;100071.06;;;30.25;31.06
71151;BME280;59071;42.138;24.768;2023-09-08T09:40:34;100075.94;;;30.67;30.94
71151;BME280;59071;42.138;24.768;2023-09-08T09:42:59;100075.09;;;31.55;29.70
71151;BME280;59071;42.138;24.768;2023-09-08T09:45:25;100073.34;;;31.51;29.89
71151;BME280;59071;42.138;24.768;2023-09-08T09:47:51;100062.06;;;31.98;29.32
71151;BME280;59071;42.138;24.768;2023-09-08T09:50:28;100051.69;;;32.28;28.68
71151;BME280;59071;42.138;24.768;2023-09-08T09:52:57;100056.88;;;31.96;29.72
71151;BME280;59071;42.138;24.768;2023-09-08T09:55:23;100058.00;;;31.83;29.49
71151;BME280;59071;42.138;24.768;2023-09-08T09:57:49;100053.06;;;31.89;29.79
71151;BME280;59071;42.138;24.768;2023-09-08T10:00:15;100052.13;;;32.06;29.20
71151;BME280;59071;42.138;24.768;2023-09-08T10:02:41;100049.56;;;32.46;29.21
71151;BME280;59071;42.138;24.768;2023-09-08T10:05:13;100053.00;;;32.68;28.52
71151;BME280;59071;42.138;24.768;2023-09-08T10:07:39;100049.84;;;33.06;28.09
71151;BME280;59071;42.138;24.768;2023-09-08T10:10:06;100032.53;;;32.44;27.89
71151;BME280;59071;42.138;24.768;2023-09-08T10:12:33;100044.25;;;32.29;28.26
71151;BME280;59071;42.138;24.768;2023-09-08T10:15:02;100028.03;;;31.69;28.69
71151;BME280;59071;42.138;24.768;2023-09-08T10:17:30;100025.59;;;32.01;28.31
71151;BME280;59071;42.138;24.768;2023-09-08T10:19:57;100027.63;;;32.75;27.58
71151;BME280;59071;42.138;24.768;2023-09-08T10:22:30;100016.72;;;32.53;28.16
71151;BME280;59071;42.138;24.768;2023-09-08T10:24:57;100018.69;;;32.41;28.23
71151;BME280;59071;42.138;24.768;2023-09-08T10:27:25;100007.06;;;32.97;28.34
71151;BME280;59071;42.138;24.768;2023-09-08T10:29:51;100008.91;;;33.61;27.64
71151;BME280;59071;42.138;24.768;2023-09-08T10:32:18;100000.53;;;34.02;25.95
71151;BME280;59071;42.138;24.768;2023-09-08T10:34:45;100004.53;;;33.88;26.24
71151;BME280;59071;42.138;24.768;2023-09-08T10:37:19;100000.53;;;33.29;26.59
71151;BME280;59071;42.138;24.768;2023-09-08T10:39:45;100011.16;;;33.03;26.84
71151;BME280;59071;42.138;24.768;2023-09-08T10:45:02;100008.59;;;31.87;27.91
71151;BME280;59071;42.138;24.768;2023-09-08T10:47:55;99998.84;;;31.77;28.01
71151;BME280;59071;42.138;24.768;2023-09-08T10:50:35;99985.72;;;32.07;27.95
71151;BME280;59071;42.138;24.768;2023-09-08T10:55:48;99988.72;;;32.76;27.66
71151;BME280;59071;42.138;24.768;2023-09-08T10:58:31;99986.81;;;33.05;26.73
71151;BME280;59071;42.138;24.768;2023-09-08T11:01:05;99981.91;;;32.98;26.85
71151;BME280;59071;42.138;24.768;2023-09-08T11:06:03;99982.53;;;32.54;27.26
71151;BME280;59071;42.138;24.768;2023-09-08T11:08:29;99970.25;;;32.64;26.89
71151;BME280;59071;42.138;24.768;2023-09-08T11:10:55;99962.66;;;31.87;28.39
71151;BME280;59071;42.138;24.768;2023-09-08T11:13:21;99964.19;;;32.59;26.98
71151;BME280;59071;42.138;24.768;2023-09-08T11:15:47;99951.91;;;32.19;27.75
71151;BME280;59071;42.138;24.768;2023-09-08T11:18:12;99955.75;;;31.81;28.24
71151;BME280;59071;42.138;24.768;2023-09-08T11:20:37;99962.34;;;31.55;28.21
71151;BME280;59071;42.138;24.768;2023-09-08T11:23:03;99960.50;;;31.47;28.37
71151;BME280;59071;42.138;24.768;2023-09-08T11:25:31;99957.72;;;31.93;28.01
71151;BME280;59071;42.138;24.768;2023-09-08T11:27:57;99950.06;;;32.23;27.78
71151;BME280;59071;42.138;24.768;2023-09-08T11:30:24;99941.91;;;31.90;28.56
71151;BME280;59071;42.138;24.768;2023-09-08T11:32:50;99944.19;;;32.00;27.91
71151;BME280;59071;42.138;24.768;2023-09-08T11:35:16;99939.75;;;32.20;27.92
71151;BME280;59071;42.138;24.768;2023-09-08T11:37:41;99936.31;;;32.60;27.34
71151;BME280;59071;42.138;24.768;2023-09-08T11:40:09;99937.09;;;33.01;27.58
71151;BME280;59071;42.138;24.768;2023-09-08T11:42:42;99933.34;;;32.93;27.16
71151;BME280;59071;42.138;24.768;2023-09-08T11:45:15;99924.06;;;32.08;27.71
71151;BME280;59071;42.138;24.768;2023-09-08T11:47:46;99923.41;;;31.66;28.80
71151;BME280;59071;42.138;24.768;2023-09-08T11:50:14;99924.38;;;31.49;28.67
71151;BME280;59071;42.138;24.768;2023-09-08T11:52:48;99909.38;;;31.46;28.51
71151;BME280;59071;42.138;24.768;2023-09-08T11:55:14;99908.44;;;31.42;29.28
71151;BME280;59071;42.138;24.768;2023-09-08T11:57:40;99912.59;;;31.48;28.89
71151;BME280;59071;42.138;24.768;2023-09-08T12:00:07;99916.16;;;31.28;29.53
71151;BME280;59071;42.138;24.768;2023-09-08T12:02:35;99911.31;;;31.12;29.29
71151;BME280;59071;42.138;24.768;2023-09-08T12:05:02;99911.25;;;31.21;28.90
71151;BME280;59071;42.138;24.768;2023-09-08T12:07:28;99906.16;;;31.44;28.54
71151;BME280;59071;42.138;24.768;2023-09-08T12:09:53;99898.66;;;31.90;27.29
71151;BME280;59071;42.138;24.768;2023-09-08T12:12:19;99900.06;;;32.21;27.20
71151;BME280;59071;42.138;24.768;2023-09-08T12:14:44;99889.63;;;32.92;26.65
71151;BME280;59071;42.138;24.768;2023-09-08T12:17:09;99887.13;;;32.22;26.96
71151;BME280;59071;42.138;24.768;2023-09-08T12:19:35;99883.06;;;31.70;27.13
71151;BME280;59071;42.138;24.768;2023-09-08T12:22:04;99879.75;;;31.76;27.50
71151;BME280;59071;42.138;24.768;2023-09-08T12:27:22;99874.88;;;32.07;27.40
71151;BME280;59071;42.138;24.768;2023-09-08T12:29:59;99875.91;;;32.55;26.63
71151;BME280;59071;42.138;24.768;2023-09-08T12:32:28;99868.13;;;32.57;26.75
71151;BME280;59071;42.138;24.768;2023-09-08T12:34:53;99863.47;;;32.33;26.70
71151;BME280;59071;42.138;24.768;2023-09-08T12:37:23;99869.84;;;32.49;26.63
71151;BME280;59071;42.138;24.768;2023-09-08T12:39:49;99863.91;;;32.60;26.60
71151;BME280;59071;42.138;24.768;2023-09-08T12:42:15;99867.97;;;32.25;26.91
71151;BME280;59071;42.138;24.768;2023-09-08T12:44:41;99865.41;;;31.83;27.45
71151;BME280;59071;42.138;24.768;2023-09-08T12:47:06;99861.84;;;31.58;27.65
71151;BME280;59071;42.138;24.768;2023-09-08T12:49:32;99854.53;;;31.16;28.18
71151;BME280;59071;42.138;24.768;2023-09-08T12:51:57;99855.94;;;31.35;27.63
71151;BME280;59071;42.138;24.768;2023-09-08T12:54:23;99859.38;;;31.32;28.17